Time;durP1;ratioP1;P1;durP2;ratioP2;P2;SDS_P1;SDS_P2;PMS_P1;PMS_P2;Temp;Humidity;BMP_temperature;BMP_pressure;BME280_temperature;BME280_humidity;BME280_pressure;Samples;Min_cycle;Max_cycle;Signal;HPM_P1;HPM_P2
2022/11/18 00:01:21;;;;;;;13.55;8.23;;;1.40;99.90;;;-0.54;86.51;100257.34;4988424;28;20038;-82
2022/11/18 00:03:53;;;;;;;16.77;9.05;;;1.40;99.90;;;-0.53;86.75;100264.25;4993961;28;20045;-82
2022/11/18 00:06:23;;;;;;;26.25;16.40;;;1.40;99.90;;;-0.43;86.67;100274.50;4993261;28;20026;-84
2022/11/18 00:08:55;;;;;;;26.05;16.77;;;1.40;99.90;;;-0.46;86.41;100260.72;4980574;28;20034;-81
2022/11/18 00:14:19;;;;;;;25.35;16.30;;;1.30;99.90;;;-0.66;86.68;100272.09;4999580;28;20072;-83
2022/11/18 00:16:57;;;;;;;28.02;17.80;;;1.30;99.90;;;-0.59;86.77;100279.81;4993998;28;20040;-81
2022/11/18 00:19:30;;;;;;;27.27;16.70;;;1.30;99.90;;;-0.65;86.69;100276.44;4993936;28;20041;-82
2022/11/18 00:22:03;;;;;;;28.70;17.75;;;1.20;99.90;;;-0.70;86.74;100273.00;4994729;28;20049;-82
2022/11/18 00:24:29;;;;;;;29.40;17.77;;;1.20;99.90;;;-0.63;86.24;100272.09;4977346;28;20022;-82
2022/11/18 00:26:55;;;;;;;30.83;17.52;;;1.20;99.90;;;-0.65;86.32;100279.00;4996356;28;20604;-81
2022/11/18 00:29:30;;;;;;;26.38;16.52;;;1.20;99.90;;;-0.71;86.77;100268.72;4995339;28;20045;-83
2022/11/18 00:31:57;;;;;;;26.55;17.42;;;1.10;99.90;;;-0.79;86.49;100269.63;4995412;28;20112;-82
2022/11/18 00:34:25;;;;;;;29.33;17.23;;;1.10;99.90;;;-0.76;86.22;100277.38;4992885;28;20065;-79
2022/11/18 00:36:58;;;;;;;21.35;11.30;;;1.10;99.90;;;-0.92;86.51;100269.72;4994572;28;20056;-81
2022/11/18 00:39:24;;;;;;;29.75;17.55;;;1.10;99.90;;;-0.85;86.94;100273.13;4993364;28;20053;-80
2022/11/18 00:44:40;;;;;;;27.40;16.80;;;1.00;99.90;;;-0.95;87.14;100274.91;5001374;28;20033;-82
2022/11/18 00:47:06;;;;;;;26.08;16.27;;;0.90;99.90;;;-1.06;87.92;100280.16;5002176;28;20050;-81
2022/11/18 00:49:31;;;;;;;25.17;15.32;;;0.90;99.90;;;-1.02;87.41;100286.16;5000232;28;20084;-81
2022/11/18 00:51:57;;;;;;;30.45;18.15;;;0.90;99.90;;;-0.92;87.85;100286.97;4995025;28;20046;-81
2022/11/18 00:54:23;;;;;;;34.85;17.38;;;0.90;99.90;;;-0.93;88.00;100282.66;5004011;28;20061;-81
2022/11/18 00:56:49;;;;;;;21.73;10.27;;;0.80;99.90;;;-1.17;88.69;100279.34;5014219;28;20076;-81
2022/11/18 00:59:19;;;;;;;30.33;19.38;;;0.70;99.90;;;-1.21;89.10;100274.22;5003022;28;20609;-81
2022/11/18 01:01:45;;;;;;;32.28;18.98;;;0.70;99.90;;;-1.29;89.54;100282.00;4993363;28;20038;-82
2022/11/18 01:04:11;;;;;;;32.28;19.27;;;0.70;99.90;;;-1.27;89.84;100273.38;4995293;28;20040;-81
2022/11/18 01:06:37;;;;;;;29.80;13.35;;;0.50;99.90;;;-1.51;89.68;100271.78;4994256;28;20028;-81
2022/11/18 01:09:03;;;;;;;34.08;17.42;;;0.50;99.90;;;-1.55;90.32;100270.09;4995230;28;20037;-81
2022/11/18 01:14:15;;;;;;;23.30;12.15;;;0.30;99.90;;;-1.92;91.55;100285.69;4997721;28;20529;-80
2022/11/18 01:16:41;;;;;;;33.88;20.75;;;0.20;99.90;;;-1.90;92.51;100275.34;5001310;28;20203;-82
2022/11/18 01:19:07;;;;;;;36.97;22.10;;;0.10;99.90;;;-1.97;92.73;100276.25;5012147;28;20110;-82
2022/11/18 01:21:33;;;;;;;39.28;22.48;;;0.10;99.90;;;-1.87;92.84;100283.09;5000317;28;20030;-81
2022/11/18 01:23:59;;;;;;;35.53;23.13;;;0.10;99.90;;;-1.87;92.62;100288.25;4994230;28;20105;-81
2022/11/18 01:26:24;;;;;;;40.55;21.42;;;0.00;99.90;;;-1.96;92.36;100284.00;4992288;28;20034;-80
2022/11/18 01:28:57;;;;;;;37.75;22.27;;;-0.10;99.90;;;-2.00;92.40;100286.59;4994831;28;20026;-82
2022/11/18 01:31:24;;;;;;;36.55;22.05;;;0.20;99.90;;;-2.16;92.63;100278.88;4994595;28;20054;-81
2022/11/18 01:33:50;;;;;;;45.03;21.90;;;-0.20;99.90;;;-2.24;93.57;100282.34;4995138;28;20075;-82
2022/11/18 01:36:26;;;;;;;39.60;22.35;;;-0.30;99.90;;;-2.28;93.36;100281.47;4994142;28;20117;-82
2022/11/18 01:38:52;;;;;;;;;;;-0.30;99.90;;;-2.47;94.61;100290.94;4993958;28;20105;-83
2022/11/18 01:41:20;;;;;;;;;;;-0.30;99.90;;;-2.49;95.38;100284.91;4979825;28;19924;-83
2022/11/18 01:43:58;;;;;;;38.28;21.67;;;-0.50;99.90;;;-2.57;96.14;100284.94;4995487;28;19959;-82
2022/11/18 01:46:36;;;;;;;37.22;21.88;;;-0.50;99.90;;;-2.52;95.71;100287.50;5010284;28;20061;-81
2022/11/18 01:49:13;;;;;;;32.20;14.40;;;-0.60;99.90;;;-2.59;96.38;100289.22;4997154;28;20030;-83
2022/11/18 01:51:56;;;;;;;30.80;17.52;;;-0.60;99.90;;;-2.67;96.49;100283.22;4992210;28;20026;-82
2022/11/18 01:54:39;;;;;;;40.85;23.05;;;-0.70;99.90;;;-2.66;97.00;100290.06;4994266;28;20029;-83
2022/11/18 01:57:21;;;;;;;41.15;23.50;;;-0.70;99.90;;;-2.70;96.57;100278.03;4994969;28;20033;-83
2022/11/18 02:00:01;;;;;;;43.00;23.13;;;-0.70;99.90;;;-2.67;96.93;100287.50;4982996;28;20034;-83
2022/11/18 02:02:35;;;;;;;43.60;24.17;;;-0.80;99.90;;;-2.81;98.07;100285.75;4995692;28;20029;-82
2022/11/18 02:05:04;;;;;;;40.72;23.15;;;-0.80;99.90;;;-2.83;98.13;100279.78;4997833;28;20533;-82
2022/11/18 02:07:41;;;;;;;43.22;24.33;;;-0.80;99.90;;;-2.89;99.08;100279.75;4981120;28;20105;-82
2022/11/18 02:10:15;;;;;;;39.30;22.50;;;-0.80;99.90;;;-2.78;99.35;100280.63;4979992;28;20032;-80
2022/11/18 02:12:41;;;;;;;29.97;14.37;;;-0.90;99.90;;;-2.91;99.67;100276.31;4996162;28;20037;-80
2022/11/18 02:15:08;;;;;;;37.22;20.30;;;-0.90;99.90;;;-2.86;100.00;100279.75;4997517;28;20037;-82
2022/11/18 02:18:01;;;;;;;39.97;22.77;;;-0.90;99.90;;;-2.77;100.00;100284.06;4995906;28;20022;-80
2022/11/18 02:20:40;;;;;;;37.15;16.90;;;-0.90;99.90;;;-2.84;99.85;100278.03;4985452;28;20441;-81
2022/11/18 02:23:37;;;;;;;40.78;21.80;;;-0.90;99.90;;;-2.83;99.53;100282.34;4997581;28;20065;-81
2022/11/18 02:26:19;;;;;;;40.95;21.80;;;-0.90;99.90;;;-2.87;99.30;100275.47;4987063;28;20104;-80
2022/11/18 02:29:15;;;;;;;41.55;23.50;;;-0.90;99.90;;;-2.90;99.82;100280.59;5014542;28;20033;-81
2022/11/18 02:32:08;;;;;;;42.22;23.13;;;-1.00;99.90;;;-2.92;99.96;100279.75;4977623;28;20471;-82
2022/11/18 02:34:55;;;;;;;42.45;22.00;;;-1.00;99.90;;;-2.97;100.00;100287.47;4995896;28;20034;-80
2022/11/18 02:37:44;;;;;;;40.53;21.08;;;-1.00;99.90;;;-2.96;99.88;100289.19;5003950;28;20034;-81
2022/11/18 02:40:27;;;;;;;44.35;23.90;;;-1.00;99.90;;;-2.97;100.00;100292.63;4994861;28;20042;-81
2022/11/18 02:43:09;;;;;;;40.22;23.27;;;-1.00;99.90;;;-2.91;100.00;100289.22;4993821;28;20434;-81
2022/11/18 02:45:46;;;;;;;39.92;23.80;;;-1.00;99.90;;;-2.90;100.00;100296.06;4997589;28;20026;-79
2022/11/18 02:48:16;;;;;;;40.67;23.00;;;-1.00;99.90;;;-2.85;100.00;100303.78;4997990;28;20109;-81
2022/11/18 02:50:53;;;;;;;34.75;19.83;;;-1.00;99.90;;;-2.94;100.00;100289.19;4994860;28;20063;-81
2022/11/18 02:53:21;;;;;;;42.13;22.98;;;-1.00;99.90;;;-2.90;100.00;100290.91;4994580;28;20034;-80
2022/11/18 02:55:53;;;;;;;41.08;22.77;;;-1.00;99.90;;;-2.85;100.00;100298.63;4995170;28;20132;-80
2022/11/18 02:58:21;;;;;;;43.08;24.77;;;-1.00;99.90;;;-2.96;100.00;100286.63;4979545;28;20038;-80
2022/11/18 03:00:59;;;;;;;39.75;21.70;;;-1.00;99.90;;;-2.94;100.00;100292.66;4994304;28;20044;-79
2022/11/18 03:03:36;;;;;;;41.10;21.60;;;-1.00;99.90;;;-2.88;100.00;100289.19;4995500;28;20041;-80
2022/11/18 03:06:41;;;;;;;49.15;25.33;;;-0.90;99.90;;;-2.82;100.00;100276.31;4988299;28;20033;-79
2022/11/18 03:09:12;;;;;;;42.22;23.40;;;-0.90;99.90;;;-2.80;100.00;100271.19;4935475;29;20138;-79
2022/11/18 03:12:21;;;;;;;43.15;23.30;;;-0.90;99.90;;;-2.78;100.00;100269.47;4951255;28;20035;-79
2022/11/18 03:15:01;;;;;;;42.58;24.23;;;-0.90;99.90;;;-2.74;100.00;100269.47;4982790;28;20056;-80
2022/11/18 03:17:45;;;;;;;42.38;22.90;;;-0.80;99.90;;;-2.73;100.00;100267.75;4994006;28;20030;-79
2022/11/18 03:20:28;;;;;;;39.28;22.95;;;-0.80;99.90;;;-2.70;100.00;100276.34;5009320;28;20525;-79
2022/11/18 03:23:22;;;;;;;46.72;22.90;;;-0.80;99.90;;;-2.67;100.00;100274.63;5012467;28;20026;-80
2022/11/18 03:26:03;;;;;;;43.65;25.08;;;-0.70;99.90;;;-2.61;100.00;100287.47;4994358;28;20037;-80
2022/11/18 03:28:40;;;;;;;43.13;24.75;;;;;;;-2.61;100.00;100280.63;4979318;28;20549;-80
2022/11/18 03:31:38;;;;;;;46.30;24.17;;;-0.70;99.90;;;-2.61;100.00;100282.31;5010227;28;20037;-80
2022/11/18 03:34:33;;;;;;;40.85;22.95;;;-0.70;99.90;;;-2.60;100.00;100284.91;4993406;28;20034;-80
2022/11/18 03:37:02;;;;;;;41.55;23.00;;;-0.70;99.90;;;-2.55;100.00;100287.50;4998040;28;20105;-80
2022/11/18 03:39:36;;;;;;;41.15;22.73;;;-0.70;99.90;;;-2.57;100.00;100282.34;5000842;28;20088;-80
2022/11/18 03:42:10;;;;;;;34.88;19.50;;;-0.60;99.90;;;-2.48;100.00;100291.81;5010435;28;20030;-81
2022/11/18 03:44:44;;;;;;;41.08;23.45;;;-0.60;99.90;;;-2.44;100.00;100288.38;5014302;28;20689;-80
2022/11/18 03:47:37;;;;;;;36.95;20.98;;;-0.50;99.90;;;-2.36;100.00;100296.94;4998159;28;20084;-81
2022/11/18 03:50:32;;;;;;;37.28;21.13;;;-0.50;99.90;;;-2.30;100.00;100294.34;4979983;28;20125;-81
2022/11/18 03:53:00;;;;;;;31.02;17.95;;;-0.40;99.90;;;-2.28;100.00;100290.06;4996719;28;20104;-81
2022/11/18 03:55:35;;;;;;;28.98;16.55;;;-0.40;99.90;;;-2.28;100.00;100302.94;4994847;28;20394;-80
2022/11/18 03:58:52;;;;;;;36.13;20.58;;;-0.40;99.90;;;-2.19;99.31;100303.81;4995959;28;20630;-80
2022/11/18 04:01:37;;;;;;;35.28;20.80;;;-0.30;99.90;;;-2.14;99.12;100321.00;4932602;29;20054;-81
2022/11/18 04:04:03;;;;;;;31.73;19.75;;;-0.30;99.90;;;-2.11;99.08;100314.97;4978717;28;20042;-81
2022/11/18 04:07:12;;;;;;;31.63;17.38;;;-0.20;99.90;;;-2.08;98.09;100323.56;4989674;23;20046;-78
2022/11/18 04:09:50;;;;;;;25.42;12.55;;;-0.20;99.90;;;-2.05;97.98;100335.63;4950695;28;20038;-78
2022/11/18 04:12:20;;;;;;;22.98;13.95;;;-0.20;99.90;;;-2.03;97.42;100323.56;4964456;28;20498;-77
2022/11/18 04:14:51;;;;;;;30.60;17.73;;;-0.10;99.90;;;-2.00;96.73;100328.72;4968970;28;20082;-77
2022/11/18 04:17:21;;;;;;;29.85;17.85;;;-0.10;99.90;;;-1.96;95.69;100338.19;4963542;28;20030;-78
2022/11/18 04:19:52;;;;;;;30.33;18.30;;;-0.10;99.90;;;-1.93;95.64;100339.88;4968417;28;20430;-78
2022/11/18 04:22:19;;;;;;;22.88;13.77;;;-0.10;99.90;;;-1.97;94.96;100339.03;4947588;28;20034;-78
2022/11/18 04:24:45;;;;;;;27.25;16.80;;;-0.10;99.90;;;-1.97;94.16;100339.03;4967076;28;20471;-78
2022/11/18 04:27:11;;;;;;;30.65;17.63;;;-0.10;99.90;;;-1.91;93.90;100341.59;4963128;28;20063;-78
2022/11/18 04:29:37;;;;;;;26.65;15.43;;;0.00;99.90;;;-1.93;93.75;100339.88;4966445;28;20034;-77
2022/11/18 04:32:08;;;;;;;28.92;17.13;;;0.00;99.90;;;-1.88;92.92;100344.19;4951492;28;20027;-77
2022/11/18 04:34:34;;;;;;;25.80;13.93;;;0.00;99.90;;;-1.95;92.66;100332.13;4965299;28;20061;-78
2022/11/18 04:37:00;;;;;;;28.73;16.27;;;-0.10;99.90;;;-1.94;92.71;100335.59;4946673;28;20061;-77
2022/11/18 04:39:25;;;;;;;26.00;15.95;;;0.00;99.90;;;-1.89;92.63;100339.03;4962649;28;20039;-77
2022/11/18 04:41:54;;;;;;;24.33;13.32;;;-0.10;99.90;;;-1.98;92.22;100347.63;4978509;28;20122;-78
2022/11/18 04:44:31;;;;;;;26.67;16.05;;;-0.10;99.90;;;-1.96;92.21;100343.34;4969930;28;20550;-77
2022/11/18 04:47:03;;;;;;;28.10;16.02;;;-0.10;99.90;;;-2.03;91.93;100343.34;4964048;28;20122;-78
2022/11/18 04:49:29;;;;;;;28.63;17.63;;;-0.10;99.90;;;-2.04;92.06;100347.66;4965558;28;20452;-77
2022/11/18 04:51:56;;;;;;;36.40;17.52;;;-0.20;99.90;;;-2.10;92.16;100345.91;4960818;28;20671;-77
2022/11/18 04:54:23;;;;;;;27.67;17.25;;;-0.20;99.90;;;-2.13;92.19;100350.25;4965728;28;20030;-78
2022/11/18 04:56:49;;;;;;;29.23;17.00;;;-0.20;99.90;;;-2.14;91.90;100358.81;4968472;28;20109;-77
2022/11/18 04:59:22;;;;;;;27.98;17.45;;;-0.30;99.90;;;-2.22;92.09;100348.53;4950989;28;20034;-77
2022/11/18 05:01:49;;;;;;;31.38;18.63;;;-0.30;99.90;;;-2.18;92.01;100357.09;4963888;28;20038;-77
2022/11/18 05:04:18;;;;;;;29.25;16.80;;;-0.30;99.90;;;-2.21;92.01;100354.53;4964310;28;20396;-78
2022/11/18 05:06:45;;;;;;;28.40;16.58;;;-0.40;99.90;;;-2.31;92.30;100353.66;4952663;28;20036;-78
2022/11/18 05:09:11;;;;;;;28.35;16.17;;;-0.50;99.90;;;-2.36;92.02;100363.97;4966773;28;20077;-78
2022/11/18 05:14:26;;;;;;;29.13;16.20;;;-0.50;99.90;;;-2.39;92.86;100363.16;4968356;28;20135;-78
2022/11/18 05:16:52;;;;;;;23.08;12.35;;;-0.50;99.90;;;-2.39;93.00;100368.31;4964105;28;20101;-77
2022/11/18 05:19:18;;;;;;;27.67;16.20;;;-0.50;99.90;;;-2.38;93.01;100378.59;4966152;28;20023;-77
2022/11/18 05:21:44;;;;;;;26.35;9.38;;;-0.50;99.90;;;-2.37;93.35;100370.00;4956183;28;21303;-77
2022/11/18 05:24:10;;;;;;;23.20;13.93;;;-0.40;99.90;;;-2.31;93.53;100382.91;4962659;28;20033;-77
2022/11/18 05:26:36;;;;;;;23.40;13.15;;;-0.40;99.90;;;-2.28;93.40;100380.31;4963673;28;20030;-77
2022/11/18 05:29:02;;;;;;;25.42;13.50;;;-0.40;99.90;;;-2.25;93.61;100368.28;4965279;28;20053;-77
2022/11/18 05:31:28;;;;;;;22.55;13.27;;;-0.30;99.90;;;-2.19;93.69;100383.78;4965094;28;20567;-78
2022/11/18 05:33:54;;;;;;;23.10;12.65;;;-0.30;99.90;;;-2.15;93.28;100378.59;4996122;28;20027;-76
2022/11/18 05:36:21;;;;;;;23.92;13.25;;;-0.30;99.90;;;-2.17;93.13;100388.06;4963051;28;20030;-77
2022/11/18 05:38:47;;;;;;;18.92;10.75;;;-0.30;99.90;;;-2.17;92.71;100382.06;4956100;28;20093;-77
2022/11/18 05:43:09;;;;;;;18.58;10.90;;;-0.30;99.90;;;-2.18;92.77;100386.38;4966373;28;20030;-77
2022/11/18 05:44:01;;;;;;;22.23;12.38;;;-0.30;99.90;;;-2.17;92.43;100385.47;4986232;28;20150;-77
2022/11/18 05:46:29;;;;;;;14.48;8.57;;;-0.30;99.90;;;-2.19;92.61;100384.63;4970279;28;20088;-77
2022/11/18 05:48:56;;;;;;;17.40;10.57;;;-0.30;99.90;;;-2.20;92.11;100392.34;4953651;28;20503;-77
2022/11/18 05:51:22;;;;;;;12.07;6.18;;;-0.30;99.90;;;-2.24;91.98;100396.66;4964925;28;20121;-77
2022/11/18 05:53:51;;;;;;;17.10;10.15;;;-0.30;99.90;;;-2.18;91.86;100396.69;4967238;28;20034;-77
2022/11/18 05:56:26;;;;;;;13.02;7.50;;;-0.30;99.90;;;-2.13;91.74;100414.72;4968663;28;20035;-78
2022/11/18 05:58:51;;;;;;;14.40;8.43;;;-0.30;99.90;;;-2.08;91.37;100410.41;4968375;28;20058;-77
2022/11/18 06:01:25;;;;;;;14.95;8.88;;;-0.20;99.90;;;-2.04;90.63;100425.03;4965795;28;20045;-77
2022/11/18 06:03:53;;;;;;;18.00;8.88;;;-0.20;99.90;;;-2.02;90.53;100425.91;4967400;28;20058;-77
2022/11/18 06:06:21;;;;;;;15.38;8.50;;;-0.20;99.90;;;-1.99;89.75;100418.16;4966366;28;20113;-77
2022/11/18 06:09:03;;;;;;;14.85;6.93;;;-0.10;99.90;;;-2.02;89.21;100428.50;4951758;28;20568;-76
2022/11/18 06:11:38;;;;;;;23.50;9.57;;;-0.10;99.90;;;-1.96;89.00;100414.75;4983664;28;20157;-76
2022/11/18 06:14:18;;;;;;;27.92;11.30;;;-0.10;99.90;;;-1.94;89.56;100431.09;4985041;28;20495;-77
2022/11/18 06:16:50;;;;;;;13.60;8.23;;;-0.10;99.90;;;-1.96;88.91;100427.63;4970664;28;20045;-76
2022/11/18 06:19:17;;;;;;;24.17;10.35;;;-0.10;99.90;;;-1.92;88.60;100414.72;4970033;28;20145;-77
2022/11/18 06:21:44;;;;;;;13.13;7.72;;;-0.10;99.90;;;-1.98;88.57;100422.47;4964947;28;20109;-77
2022/11/18 06:24:11;;;;;;;11.30;6.47;;;-0.10;99.90;;;-2.03;88.46;100416.47;4966724;28;20109;-76
2022/11/18 06:26:37;;;;;;;19.70;7.75;;;-0.10;99.90;;;-1.96;88.25;100425.06;4972935;28;20451;-78
2022/11/18 06:29:06;;;;;;;14.15;7.68;;;-0.10;99.90;;;-1.99;88.46;100425.88;4982418;28;20486;-76
2022/11/18 06:31:32;;;;;;;9.82;5.03;;;-0.10;99.90;;;-2.01;88.16;100432.78;4965316;28;20034;-77
2022/11/18 06:33:57;;;;;;;12.43;7.20;;;-0.10;99.90;;;-1.95;88.30;100434.50;4957242;28;20027;-76
2022/11/18 06:36:23;;;;;;;12.23;4.93;;;-0.10;99.90;;;-1.99;87.92;100446.53;4967092;28;20106;-78
2022/11/18 06:38:49;;;;;;;10.90;6.40;;;-0.10;99.90;;;-1.95;87.51;100450.84;4966448;28;20495;-78
2022/11/18 06:41:15;;;;;;;12.02;5.85;;;-0.10;99.90;;;-1.93;87.37;100458.59;4953399;28;20122;-77
2022/11/18 06:43:40;;;;;;;9.45;5.53;;;-0.10;99.90;;;-1.97;87.10;100455.13;4986896;28;20109;-78
2022/11/18 06:49:00;;;;;;;9.80;5.32;;;0.00;99.90;;;-1.90;86.61;100464.63;4970233;28;20577;-77
2022/11/18 06:51:27;;;;;;;10.13;5.57;;;0.00;99.90;;;-1.84;86.17;100462.91;4967705;28;20046;-77
2022/11/18 06:53:53;;;;;;;7.00;4.40;;;0.00;99.90;;;-1.90;85.99;100469.78;4967788;28;20035;-78
2022/11/18 06:56:24;;;;;;;8.05;5.30;;;0.00;99.90;;;-1.83;85.78;100474.97;4969400;28;20037;-78
2022/11/18 06:58:56;;;;;;;10.57;5.40;;;0.00;99.90;;;-1.79;85.75;100482.69;4966401;28;20047;-78
2022/11/18 07:01:25;;;;;;;7.75;5.00;;;0.00;99.90;;;-1.77;85.25;100483.56;4970147;28;20109;-77
2022/11/18 07:03:52;;;;;;;7.78;5.00;;;0.00;99.90;;;-1.76;85.37;100485.25;4972508;28;20050;-77
2022/11/18 07:06:21;;;;;;;7.88;4.25;;;0.00;99.90;;;-1.87;84.83;100490.41;4972021;28;20618;-77
2022/11/18 07:08:48;;;;;;;9.98;5.18;;;0.20;99.90;;;-1.82;84.98;100485.25;4952200;28;20037;-77
2022/11/18 07:11:19;;;;;;;9.15;4.70;;;0.00;99.90;;;-1.76;84.68;100487.84;4964597;28;20037;-77
2022/11/18 07:13:46;;;;;;;5.28;3.60;;;0.00;99.90;;;-1.78;84.30;100493.88;4965652;28;20088;-77
2022/11/18 07:16:16;;;;;;;6.70;4.07;;;0.10;99.90;;;-1.65;83.82;100491.28;4967673;28;20098;-77
2022/11/18 07:18:43;;;;;;;6.38;3.28;;;0.10;99.90;;;-1.65;83.38;100490.41;4968067;28;20399;-77
2022/11/18 07:21:14;;;;;;;5.68;2.25;;;0.20;99.90;;;-1.54;83.14;100500.75;4967240;28;20068;-77
2022/11/18 07:23:41;;;;;;;4.00;2.55;;;0.20;99.90;;;-1.52;82.65;100504.19;4981490;28;20041;-77
2022/11/18 07:26:07;;;;;;;7.63;2.88;;;0.30;99.90;;;-1.50;82.22;100508.47;4965558;28;20110;-76
2022/11/18 07:28:34;;;;;;;6.53;3.40;;;0.30;99.90;;;-1.43;81.90;100505.91;4969146;28;20100;-76
2022/11/18 07:31:05;;;;;;;6.35;2.95;;;0.40;99.90;;;-1.32;81.83;100519.66;4967856;28;20091;-77
2022/11/18 07:33:32;;;;;;;6.38;3.05;;;0.40;99.90;;;-1.33;81.49;100512.78;4955642;28;20030;-77
2022/11/18 07:36:16;;;;;;;6.65;3.13;;;0.50;99.90;;;-1.20;80.50;100516.22;4968976;28;20030;-76
2022/11/18 07:38:42;;;;;;;6.57;3.88;;;0.50;99.90;;;-1.14;81.11;100521.38;4982664;28;20122;-77
2022/11/18 07:41:17;;;;;;;6.28;3.83;;;0.60;99.90;;;-1.13;80.08;100529.09;4972855;28;20626;-77
2022/11/18 07:43:43;;;;;;;8.55;3.85;;;0.70;99.90;;;-1.07;80.39;100529.09;4985477;28;20073;-78
2022/11/18 07:46:17;;;;;;;7.05;3.63;;;0.70;99.90;;;-1.02;79.97;100538.56;4966319;28;20029;-77
2022/11/18 07:48:46;;;;;;;4.88;2.55;;;0.70;99.90;;;-1.02;79.72;100528.22;4981620;28;20450;-77
2022/11/18 07:51:13;;;;;;;6.65;2.90;;;0.80;99.90;;;-0.92;79.53;100537.69;4949383;28;20120;-78
2022/11/18 07:53:44;;;;;;;4.30;2.45;;;0.80;99.90;;;-0.96;79.10;100547.16;4952000;28;20042;-78
2022/11/18 07:56:12;;;;;;;4.55;2.47;;;0.80;99.90;;;-0.91;78.78;100545.41;4968639;28;20034;-76
2022/11/18 07:58:38;;;;;;;5.28;2.35;;;0.80;99.90;;;-0.84;78.66;100543.69;4969974;28;20061;-77
2022/11/18 08:01:10;;;;;;;4.30;2.70;;;0.90;99.90;;;-0.88;78.04;100547.16;4952043;28;20027;-76
2022/11/18 08:03:36;;;;;;;2.83;1.77;;;0.90;99.90;;;-0.91;78.27;100552.31;4980300;28;20034;-78
2022/11/18 08:06:04;;;;;;;5.72;2.45;;;0.90;99.90;;;-0.81;78.35;100550.56;4964488;28;20037;-77
2022/11/18 08:08:30;;;;;;;4.85;2.53;;;1.00;99.90;;;-0.75;78.11;100554.00;4969728;28;20381;-78
2022/11/18 08:11:07;;;;;;;7.18;3.05;;;1.00;99.90;;;-0.67;77.97;100549.69;4951589;28;20042;-78
2022/11/18 08:13:34;;;;;;;6.53;3.25;;;1.00;99.90;;;-0.69;78.43;100546.22;4963764;28;20415;-77
2022/11/18 08:16:02;;;;;;;5.45;3.25;;;1.00;99.90;;;-0.62;77.80;100549.66;4966331;28;20030;-78
2022/11/18 08:18:34;;;;;;;4.03;2.10;;;1.00;99.90;;;-0.66;77.81;100547.94;4967094;28;20046;-77
2022/11/18 08:21:03;;;;;;;4.82;3.00;;;1.00;99.90;;;-0.62;77.80;100547.91;4970303;28;20035;-78
2022/11/18 08:23:30;;;;;;;6.43;2.78;;;1.10;99.90;;;-0.62;77.67;100545.34;4964352;28;20597;-77
2022/11/18 08:26:04;;;;;;;5.53;3.22;;;1.10;99.90;;;-0.54;77.54;100550.50;4950652;28;20043;-77
2022/11/18 08:28:30;;;;;;;10.93;5.03;;;1.20;99.90;;;-0.48;77.69;100554.75;4967644;28;20014;-74
2022/11/18 08:30:56;;;;;;;4.57;2.22;;;1.20;99.90;;;-0.48;76.92;100547.00;4970551;28;20041;-76
2022/11/18 08:33:22;;;;;;;20.20;9.32;;;1.20;99.90;;;-0.43;76.75;100561.66;4968438;28;20410;-77
2022/11/18 08:35:55;;;;;;;10.73;4.45;;;1.30;99.90;;;-0.34;76.48;100565.06;4953272;28;20049;-77
2022/11/18 08:38:21;;;;;;;6.22;3.55;;;1.40;99.90;;;-0.29;76.08;100563.31;4964815;28;20023;-78
2022/11/18 08:40:47;;;;;;;6.05;3.03;;;1.40;99.90;;;-0.24;75.90;100562.44;4951079;28;20117;-78
2022/11/18 08:43:13;;;;;;;6.10;3.00;;;1.40;99.90;;;-0.22;75.33;100563.28;4966390;28;20061;-76
2022/11/18 08:45:39;;;;;;;5.07;2.60;;;1.50;99.90;;;-0.19;75.07;100565.00;4972892;28;20105;-75
2022/11/18 08:48:06;;;;;;;5.65;2.15;;;1.50;99.90;;;-0.14;75.23;100570.13;4964735;28;20034;-76
2022/11/18 08:50:31;;;;;;;4.28;2.55;;;1.50;99.90;;;-0.11;75.29;100575.28;4969750;28;20031;-76
2022/11/18 08:52:57;;;;;;;7.53;2.45;;;1.60;99.90;;;-0.12;75.11;100565.81;4949016;28;20128;-77
2022/11/18 08:55:23;;;;;;;4.38;2.25;;;1.60;99.90;;;-0.02;75.01;100572.66;4982046;28;20639;-77
2022/11/18 08:57:49;;;;;;;6.18;2.45;;;1.70;99.90;;;-0.05;74.49;100568.34;4966347;28;20034;-77
2022/11/18 09:00:15;;;;;;;5.22;2.25;;;1.70;99.90;;;0.05;74.88;100568.31;4952548;28;20034;-77
2022/11/18 09:02:41;;;;;;;5.82;3.80;;;1.80;99.90;;;0.14;74.69;100563.91;4962996;28;20487;-77
2022/11/18 09:05:10;;;;;;;2.95;1.85;;;1.80;99.90;;;0.11;74.59;100568.25;4967087;28;20061;-76
2022/11/18 09:07:36;;;;;;;4.03;2.50;;;1.80;99.90;;;0.27;74.55;100575.06;4982784;28;20121;-77
2022/11/18 09:10:02;;;;;;;4.85;1.90;;;1.90;99.90;;;0.32;74.68;100577.63;4962037;28;20047;-77
2022/11/18 09:12:28;;;;;;;3.00;1.63;;;2.00;99.90;;;0.40;74.51;100578.44;4963802;28;20054;-76
2022/11/18 09:14:54;;;;;;;2.80;1.77;;;2.10;99.90;;;0.48;74.16;100584.41;4960817;28;20392;-76
2022/11/18 09:17:20;;;;;;;2.88;1.70;;;2.10;99.90;;;0.55;74.37;100588.66;4964244;28;20453;-77
2022/11/18 09:19:46;;;;;;;5.00;2.17;;;2.20;99.90;;;0.60;74.13;100589.53;4961678;28;20054;-76
2022/11/18 09:22:11;;;;;;;4.20;1.83;;;2.30;99.90;;;0.65;73.91;100586.88;4951805;28;20047;-76
2022/11/18 09:24:39;;;;;;;3.08;1.70;;;2.30;99.90;;;0.78;74.21;100587.66;4980197;28;20022;-76
2022/11/18 09:27:11;;;;;;;3.13;1.38;;;2.40;99.90;;;0.69;73.28;100596.34;4964606;28;20034;-78
2022/11/18 09:29:37;;;;;;;2.95;2.00;;;2.40;99.90;;;0.89;73.68;100598.78;4982369;28;20494;-76
2022/11/18 09:32:06;;;;;;;3.72;2.00;;;2.50;99.90;;;0.93;73.61;100592.69;4967389;28;20045;-76
2022/11/18 09:34:36;;;;;;;9.57;4.57;;;2.60;99.90;;;1.06;73.40;100608.09;4946116;28;20047;-76
2022/11/18 09:37:08;;;;;;;5.38;2.90;;;2.70;99.90;;;1.13;73.24;100602.88;4962731;28;20456;-76
2022/11/18 09:39:38;;;;;;;7.72;1.90;;;2.70;99.90;;;1.21;73.37;100608.00;4964820;28;20125;-76
2022/11/18 09:42:35;;;;;;;4.50;1.90;;;2.80;99.90;;;1.26;72.51;100607.94;4963711;28;20078;-76
2022/11/18 09:45:29;;;;;;;4.30;1.95;;;2.90;99.90;;;1.32;72.42;100621.69;4963142;28;20042;-76
2022/11/18 09:47:59;;;;;;;3.95;1.90;;;3.00;99.90;;;1.49;72.39;100613.75;4979598;28;20030;-76
2022/11/18 09:50:28;;;;;;;6.10;1.70;;;3.10;99.90;;;1.59;72.42;100617.06;4961723;28;20430;-77
2022/11/18 09:53:22;;;;;;;3.40;1.90;;;3.20;99.90;;;1.72;71.86;100612.59;4963620;28;20031;-76
2022/11/18 09:55:52;;;;;;;3.00;1.80;;;3.30;99.90;;;1.57;70.29;100616.25;4980447;28;20031;-77
2022/11/18 09:58:35;;;;;;;4.55;2.33;;;3.30;99.90;;;1.72;70.35;100610.88;4963719;28;20392;-76
2022/11/18 10:01:11;;;;;;;8.27;5.22;;;3.40;99.90;;;1.89;69.99;100609.81;4965023;28;20026;-76
2022/11/18 10:03:41;;;;;;;4.82;2.58;;;3.50;99.90;;;1.98;69.88;100601.88;4963201;28;20031;-76
2022/11/18 10:06:30;;;;;;;2.53;1.70;;;3.50;99.90;;;1.88;69.21;100610.66;4966733;28;20035;-76
2022/11/18 10:09:36;;;;;;;4.65;1.92;;;3.50;99.90;;;2.06;69.66;100602.66;4948467;28;20502;-76
2022/11/18 10:12:36;;;;;;;4.70;1.92;;;3.60;99.90;;;1.87;68.78;100595.97;4979616;28;20030;-75
2022/11/18 10:15:29;;;;;;;2.90;1.90;;;3.60;99.90;;;1.97;68.97;100611.41;4952468;28;20041;-76
2022/11/18 10:18:25;;;;;;;3.45;1.90;;;3.60;99.90;;;2.01;68.57;100612.25;4981383;28;20034;-76
2022/11/18 10:21:32;;;;;;;5.55;3.33;;;3.60;99.90;;;2.07;68.92;100617.34;4981561;28;20050;-76
2022/11/18 10:24:17;;;;;;;3.90;2.40;;;3.70;99.90;;;2.08;68.56;100610.44;4965921;28;20573;-76
2022/11/18 10:26:43;;;;;;;31.60;16.63;;;3.70;99.90;;;2.17;68.54;100620.69;4985121;28;20147;-76
2022/11/18 10:29:12;;;;;;;2.88;1.80;;;3.70;99.90;;;2.01;68.64;100620.91;4970620;28;20042;-75
2022/11/18 10:32:07;;;;;;;5.30;1.98;;;3.80;99.90;;;2.21;69.14;100625.81;4984495;28;20077;-75
2022/11/18 10:34:53;;;;;;;5.07;2.65;;;3.80;99.90;;;2.22;69.01;100619.72;4976412;28;20046;-75
2022/11/18 10:37:35;;;;;;;3.03;1.80;;;3.80;99.90;;;2.26;68.73;100626.59;4966454;28;20121;-73
2022/11/18 10:40:04;;;;;;;2.83;0.85;;;3.80;99.90;;;2.05;68.18;100625.19;4950015;28;20054;-74
2022/11/18 10:42:45;;;;;;;3.33;1.45;;;3.80;99.90;;;2.00;68.19;100620.91;4952083;28;20054;-75
2022/11/18 10:45:22;;;;;;;5.75;2.50;;;3.80;99.90;;;2.21;68.15;100624.97;4953303;28;20057;-72
2022/11/18 10:48:14;;;;;;;2.53;1.25;;;3.70;99.90;;;2.05;66.89;100622.56;4984735;28;20150;-74